sensor_id;sensor_type;location;lat;lon;timestamp;P1;durP1;ratioP1;P2;durP2;ratioP2
37383;SDS011;23258;49.718;11.082;2022-11-04T00:02:08;11.18;;;7.00;;
37383;SDS011;23258;49.718;11.082;2022-11-04T00:04:37;7.15;;;5.68;;
37383;SDS011;23258;49.718;11.082;2022-11-04T00:07:07;7.95;;;6.90;;
37383;SDS011;23258;49.718;11.082;2022-11-04T00:09:59;8.13;;;6.35;;
37383;SDS011;23258;49.718;11.082;2022-11-04T00:12:29;7.18;;;6.47;;
37383;SDS011;23258;49.718;11.082;2022-11-04T00:14:55;13.40;;;7.05;;
37383;SDS011;23258;49.718;11.082;2022-11-04T00:17:45;7.10;;;6.45;;
37383;SDS011;23258;49.718;11.082;2022-11-04T00:20:12;6.50;;;5.88;;
37383;SDS011;23258;49.718;11.082;2022-11-04T00:22:54;6.75;;;6.03;;
37383;SDS011;23258;49.718;11.082;2022-11-04T00:25:39;7.03;;;6.13;;
37383;SDS011;23258;49.718;11.082;2022-11-04T00:28:21;8.18;;;5.70;;
37383;SDS011;23258;49.718;11.082;2022-11-04T00:31:04;7.10;;;5.35;;
37383;SDS011;23258;49.718;11.082;2022-11-04T00:33:46;9.20;;;6.65;;
37383;SDS011;23258;49.718;11.082;2022-11-04T00:36:16;8.45;;;6.53;;
37383;SDS011;23258;49.718;11.082;2022-11-04T00:38:45;6.82;;;5.88;;
37383;SDS011;23258;49.718;11.082;2022-11-04T00:41:18;7.63;;;6.03;;
37383;SDS011;23258;49.718;11.082;2022-11-04T00:43:56;7.32;;;6.60;;
37383;SDS011;23258;49.718;11.082;2022-11-04T00:46:26;6.97;;;6.32;;
37383;SDS011;23258;49.718;11.082;2022-11-04T00:48:56;7.05;;;6.35;;
37383;SDS011;23258;49.718;11.082;2022-11-04T00:51:26;6.88;;;6.13;;
37383;SDS011;23258;49.718;11.082;2022-11-04T00:53:55;8.43;;;6.43;;
37383;SDS011;23258;49.718;11.082;2022-11-04T00:56:28;7.88;;;6.32;;
37383;SDS011;23258;49.718;11.082;2022-11-04T00:58:58;6.88;;;6.15;;
37383;SDS011;23258;49.718;11.082;2022-11-04T01:01:27;7.50;;;6.35;;
37383;SDS011;23258;49.718;11.082;2022-11-04T01:03:57;6.72;;;6.10;;
37383;SDS011;23258;49.718;11.082;2022-11-04T01:06:26;7.22;;;6.53;;
37383;SDS011;23258;49.718;11.082;2022-11-04T01:08:56;6.38;;;5.82;;
37383;SDS011;23258;49.718;11.082;2022-11-04T01:11:29;7.55;;;6.28;;
37383;SDS011;23258;49.718;11.082;2022-11-04T01:13:58;7.82;;;6.57;;
37383;SDS011;23258;49.718;11.082;2022-11-04T01:16:28;7.28;;;5.95;;
37383;SDS011;23258;49.718;11.082;2022-11-04T01:18:58;9.05;;;7.30;;
37383;SDS011;23258;49.718;11.082;2022-11-04T01:21:28;6.90;;;6.20;;
37383;SDS011;23258;49.718;11.082;2022-11-04T01:23:58;7.50;;;6.80;;
37383;SDS011;23258;49.718;11.082;2022-11-04T01:26:30;7.05;;;6.40;;
37383;SDS011;23258;49.718;11.082;2022-11-04T01:29:00;6.78;;;6.18;;
37383;SDS011;23258;49.718;11.082;2022-11-04T01:31:29;9.20;;;6.07;;
37383;SDS011;23258;49.718;11.082;2022-11-04T01:33:59;6.28;;;5.65;;
37383;SDS011;23258;49.718;11.082;2022-11-04T01:36:28;10.25;;;5.72;;
37383;SDS011;23258;49.718;11.082;2022-11-04T01:38:58;8.63;;;6.35;;
37383;SDS011;23258;49.718;11.082;2022-11-04T01:41:31;7.55;;;6.07;;
37383;SDS011;23258;49.718;11.082;2022-11-04T01:44:01;7.25;;;5.53;;
37383;SDS011;23258;49.718;11.082;2022-11-04T01:46:33;6.07;;;5.47;;
37383;SDS011;23258;49.718;11.082;2022-11-04T01:49:08;7.32;;;5.55;;
37383;SDS011;23258;49.718;11.082;2022-11-04T01:51:39;6.32;;;5.72;;
37383;SDS011;23258;49.718;11.082;2022-11-04T01:54:09;6.72;;;6.07;;
37383;SDS011;23258;49.718;11.082;2022-11-04T01:56:42;7.60;;;6.45;;
37383;SDS011;23258;49.718;11.082;2022-11-04T01:59:12;8.45;;;6.10;;
37383;SDS011;23258;49.718;11.082;2022-11-04T02:01:44;6.97;;;5.18;;
37383;SDS011;23258;49.718;11.082;2022-11-04T02:04:13;7.85;;;5.00;;
37383;SDS011;23258;49.718;11.082;2022-11-04T02:06:56;5.57;;;5.00;;
37383;SDS011;23258;49.718;11.082;2022-11-04T02:09:26;5.88;;;5.00;;
37383;SDS011;23258;49.718;11.082;2022-11-04T02:11:58;5.65;;;4.60;;
37383;SDS011;23258;49.718;11.082;2022-11-04T02:14:40;5.43;;;4.90;;
37383;SDS011;23258;49.718;11.082;2022-11-04T02:17:14;7.78;;;5.07;;
37383;SDS011;23258;49.718;11.082;2022-11-04T02:19:57;5.88;;;5.07;;
37383;SDS011;23258;49.718;11.082;2022-11-04T02:22:30;7.07;;;5.25;;
37383;SDS011;23258;49.718;11.082;2022-11-04T02:25:09;4.88;;;4.35;;
37383;SDS011;23258;49.718;11.082;2022-11-04T02:27:51;3.63;;;3.30;;
37383;SDS011;23258;49.718;11.082;2022-11-04T02:30:30;3.45;;;3.25;;
37383;SDS011;23258;49.718;11.082;2022-11-04T02:33:04;3.50;;;3.25;;
37383;SDS011;23258;49.718;11.082;2022-11-04T02:35:40;2.92;;;2.72;;
37383;SDS011;23258;49.718;11.082;2022-11-04T02:38:13;2.83;;;2.65;;
37383;SDS011;23258;49.718;11.082;2022-11-04T02:40:49;3.17;;;2.88;;
37383;SDS011;23258;49.718;11.082;2022-11-04T02:43:22;3.08;;;2.78;;
37383;SDS011;23258;49.718;11.082;2022-11-04T02:45:58;3.50;;;2.85;;
37383;SDS011;23258;49.718;11.082;2022-11-04T02:48:30;6.90;;;2.80;;
37383;SDS011;23258;49.718;11.082;2022-11-04T02:51:04;3.25;;;2.95;;
37383;SDS011;23258;49.718;11.082;2022-11-04T02:53:36;5.53;;;2.65;;
37383;SDS011;23258;49.718;11.082;2022-11-04T02:56:07;2.38;;;2.17;;
37383;SDS011;23258;49.718;11.082;2022-11-04T02:58:40;2.00;;;1.90;;
37383;SDS011;23258;49.718;11.082;2022-11-04T03:01:14;2.30;;;2.10;;
37383;SDS011;23258;49.718;11.082;2022-11-04T03:03:47;2.15;;;2.05;;
37383;SDS011;23258;49.718;11.082;2022-11-04T03:06:18;2.28;;;2.00;;
37383;SDS011;23258;49.718;11.082;2022-11-04T03:08:50;2.20;;;2.10;;
37383;SDS011;23258;49.718;11.082;2022-11-04T03:11:20;2.30;;;2.10;;
37383;SDS011;23258;49.718;11.082;2022-11-04T03:13:52;1.85;;;1.75;;
37383;SDS011;23258;49.718;11.082;2022-11-04T03:16:26;2.08;;;1.88;;
37383;SDS011;23258;49.718;11.082;2022-11-04T03:18:57;2.50;;;2.30;;
37383;SDS011;23258;49.718;11.082;2022-11-04T03:21:30;2.03;;;1.92;;
37383;SDS011;23258;49.718;11.082;2022-11-04T03:24:01;2.35;;;2.05;;
37383;SDS011;23258;49.718;11.082;2022-11-04T03:26:32;2.45;;;2.00;;
37383;SDS011;23258;49.718;11.082;2022-11-04T03:29:10;2.03;;;1.83;;
37383;SDS011;23258;49.718;11.082;2022-11-04T03:31:44;1.75;;;1.65;;
37383;SDS011;23258;49.718;11.082;2022-11-04T03:34:15;2.80;;;2.00;;
37383;SDS011;23258;49.718;11.082;2022-11-04T03:36:45;1.80;;;1.70;;
37383;SDS011;23258;49.718;11.082;2022-11-04T03:39:14;1.45;;;1.40;;
37383;SDS011;23258;49.718;11.082;2022-11-04T03:41:45;1.85;;;1.75;;
37383;SDS011;23258;49.718;11.082;2022-11-04T03:44:16;2.20;;;2.10;;
37383;SDS011;23258;49.718;11.082;2022-11-04T03:46:48;2.22;;;2.08;;
37383;SDS011;23258;49.718;11.082;2022-11-04T03:49:18;1.90;;;1.80;;
37383;SDS011;23258;49.718;11.082;2022-11-04T03:51:49;2.30;;;1.65;;
37383;SDS011;23258;49.718;11.082;2022-11-04T03:54:19;2.08;;;1.90;;
37383;SDS011;23258;49.718;11.082;2022-11-04T03:56:55;1.98;;;1.77;;
37383;SDS011;23258;49.718;11.082;2022-11-04T03:59:38;1.55;;;1.45;;
37383;SDS011;23258;49.718;11.082;2022-11-04T04:02:12;1.27;;;1.27;;
37383;SDS011;23258;49.718;11.082;2022-11-04T04:04:43;2.05;;;1.90;;
37383;SDS011;23258;49.718;11.082;2022-11-04T04:07:17;1.77;;;1.67;;
37383;SDS011;23258;49.718;11.082;2022-11-04T04:09:48;1.20;;;1.20;;
37383;SDS011;23258;49.718;11.082;2022-11-04T04:12:19;1.45;;;1.35;;
37383;SDS011;23258;49.718;11.082;2022-11-04T04:14:56;1.83;;;1.50;;
37383;SDS011;23258;49.718;11.082;2022-11-04T04:17:31;1.92;;;1.83;;
37383;SDS011;23258;49.718;11.082;2022-11-04T04:20:03;1.95;;;1.85;;
37383;SDS011;23258;49.718;11.082;2022-11-04T04:22:34;1.88;;;1.77;;
37383;SDS011;23258;49.718;11.082;2022-11-04T04:25:05;2.08;;;1.88;;
37383;SDS011;23258;49.718;11.082;2022-11-04T04:28:00;2.30;;;1.73;;
37383;SDS011;23258;49.718;11.082;2022-11-04T04:30:30;1.60;;;1.48;;
37383;SDS011;23258;49.718;11.082;2022-11-04T04:33:03;2.13;;;1.98;;
37383;SDS011;23258;49.718;11.082;2022-11-04T04:35:34;1.45;;;1.35;;
37383;SDS011;23258;49.718;11.082;2022-11-04T04:38:14;1.60;;;1.50;;
37383;SDS011;23258;49.718;11.082;2022-11-04T04:40:58;1.98;;;1.80;;
37383;SDS011;23258;49.718;11.082;2022-11-04T04:43:42;1.75;;;1.48;;
37383;SDS011;23258;49.718;11.082;2022-11-04T04:46:24;1.50;;;1.40;;
37383;SDS011;23258;49.718;11.082;2022-11-04T04:48:57;1.95;;;1.70;;
37383;SDS011;23258;49.718;11.082;2022-11-04T04:51:31;3.42;;;1.45;;
37383;SDS011;23258;49.718;11.082;2022-11-04T04:54:01;1.50;;;1.40;;
37383;SDS011;23258;49.718;11.082;2022-11-04T04:56:31;1.60;;;1.50;;
37383;SDS011;23258;49.718;11.082;2022-11-04T04:59:01;1.45;;;1.35;;
37383;SDS011;23258;49.718;11.082;2022-11-04T05:01:30;1.17;;;1.17;;
37383;SDS011;23258;49.718;11.082;2022-11-04T05:04:03;1.63;;;1.52;;
37383;SDS011;23258;49.718;11.082;2022-11-04T05:06:32;1.73;;;1.63;;
37383;SDS011;23258;49.718;11.082;2022-11-04T05:09:02;1.65;;;1.55;;
37383;SDS011;23258;49.718;11.082;2022-11-04T05:11:32;1.50;;;1.40;;
37383;SDS011;23258;49.718;11.082;2022-11-04T05:14:01;1.67;;;1.58;;
37383;SDS011;23258;49.718;11.082;2022-11-04T05:16:31;2.05;;;1.80;;
37383;SDS011;23258;49.718;11.082;2022-11-04T05:19:08;1.60;;;1.50;;
37383;SDS011;23258;49.718;11.082;2022-11-04T05:21:38;1.13;;;1.13;;
37383;SDS011;23258;49.718;11.082;2022-11-04T05:24:08;1.90;;;1.80;;
37383;SDS011;23258;49.718;11.082;2022-11-04T05:26:38;1.70;;;1.55;;
37383;SDS011;23258;49.718;11.082;2022-11-04T05:29:07;2.22;;;1.55;;
37383;SDS011;23258;49.718;11.082;2022-11-04T05:31:38;1.55;;;1.48;;
37383;SDS011;23258;49.718;11.082;2022-11-04T05:34:11;1.65;;;1.52;;
37383;SDS011;23258;49.718;11.082;2022-11-04T05:36:41;1.27;;;1.20;;
37383;SDS011;23258;49.718;11.082;2022-11-04T05:39:11;1.58;;;1.48;;
37383;SDS011;23258;49.718;11.082;2022-11-04T05:41:41;2.20;;;1.65;;
37383;SDS011;23258;49.718;11.082;2022-11-04T05:44:10;1.38;;;1.33;;
37383;SDS011;23258;49.718;11.082;2022-11-04T05:46:41;1.33;;;1.27;;
37383;SDS011;23258;49.718;11.082;2022-11-04T05:49:13;1.65;;;1.50;;
37383;SDS011;23258;49.718;11.082;2022-11-04T05:51:42;1.50;;;1.40;;
37383;SDS011;23258;49.718;11.082;2022-11-04T05:54:12;1.58;;;1.48;;
37383;SDS011;23258;49.718;11.082;2022-11-04T05:56:42;1.60;;;1.50;;
37383;SDS011;23258;49.718;11.082;2022-11-04T05:59:12;1.80;;;1.70;;
37383;SDS011;23258;49.718;11.082;2022-11-04T06:01:42;2.03;;;1.92;;
37383;SDS011;23258;49.718;11.082;2022-11-04T06:04:15;1.80;;;1.70;;
37383;SDS011;23258;49.718;11.082;2022-11-04T06:06:45;3.13;;;1.73;;
37383;SDS011;23258;49.718;11.082;2022-11-04T06:09:15;1.25;;;1.25;;
37383;SDS011;23258;49.718;11.082;2022-11-04T06:11:44;3.10;;;1.48;;
37383;SDS011;23258;49.718;11.082;2022-11-04T06:14:14;1.40;;;1.40;;
37383;SDS011;23258;49.718;11.082;2022-11-04T06:16:44;1.42;;;1.35;;
37383;SDS011;23258;49.718;11.082;2022-11-04T06:19:16;1.67;;;1.58;;
37383;SDS011;23258;49.718;11.082;2022-11-04T06:21:46;1.50;;;1.40;;
37383;SDS011;23258;49.718;11.082;2022-11-04T06:24:15;2.75;;;2.13;;
37383;SDS011;23258;49.718;11.082;2022-11-04T06:26:45;1.92;;;1.80;;
37383;SDS011;23258;49.718;11.082;2022-11-04T06:29:14;1.77;;;1.67;;
37383;SDS011;23258;49.718;11.082;2022-11-04T06:31:44;3.90;;;1.75;;
37383;SDS011;23258;49.718;11.082;2022-11-04T06:34:16;2.60;;;1.75;;
37383;SDS011;23258;49.718;11.082;2022-11-04T06:36:47;2.10;;;1.92;;
37383;SDS011;23258;49.718;11.082;2022-11-04T06:39:16;2.70;;;2.17;;
37383;SDS011;23258;49.718;11.082;2022-11-04T06:41:47;1.30;;;1.30;;
37383;SDS011;23258;49.718;11.082;2022-11-04T06:44:18;3.47;;;1.77;;
37383;SDS011;23258;49.718;11.082;2022-11-04T06:46:48;1.75;;;1.65;;
37383;SDS011;23258;49.718;11.082;2022-11-04T06:49:20;1.95;;;1.75;;
37383;SDS011;23258;49.718;11.082;2022-11-04T06:51:50;1.80;;;1.70;;
37383;SDS011;23258;49.718;11.082;2022-11-04T06:54:20;1.70;;;1.60;;
37383;SDS011;23258;49.718;11.082;2022-11-04T06:56:50;1.98;;;1.85;;
37383;SDS011;23258;49.718;11.082;2022-11-04T06:59:19;2.25;;;2.00;;
37383;SDS011;23258;49.718;11.082;2022-11-04T07:01:49;2.38;;;1.65;;
37383;SDS011;23258;49.718;11.082;2022-11-04T07:04:22;1.55;;;1.45;;
37383;SDS011;23258;49.718;11.082;2022-11-04T07:06:52;2.03;;;1.83;;
37383;SDS011;23258;49.718;11.082;2022-11-04T07:09:22;2.10;;;1.90;;
37383;SDS011;23258;49.718;11.082;2022-11-04T07:11:51;1.38;;;1.38;;
37383;SDS011;23258;49.718;11.082;2022-11-04T07:14:21;1.90;;;1.80;;
37383;SDS011;23258;49.718;11.082;2022-11-04T07:16:50;2.05;;;1.67;;
37383;SDS011;23258;49.718;11.082;2022-11-04T07:19:23;1.55;;;1.45;;
37383;SDS011;23258;49.718;11.082;2022-11-04T07:21:52;1.20;;;1.17;;
37383;SDS011;23258;49.718;11.082;2022-11-04T07:24:22;1.60;;;1.50;;
37383;SDS011;23258;49.718;11.082;2022-11-04T07:26:53;1.73;;;1.30;;
37383;SDS011;23258;49.718;11.082;2022-11-04T07:29:22;1.25;;;1.20;;
37383;SDS011;23258;49.718;11.082;2022-11-04T07:31:52;1.50;;;1.40;;
37383;SDS011;23258;49.718;11.082;2022-11-04T07:34:25;1.33;;;1.23;;
37383;SDS011;23258;49.718;11.082;2022-11-04T07:36:54;1.77;;;1.67;;
37383;SDS011;23258;49.718;11.082;2022-11-04T07:39:24;1.30;;;1.20;;
37383;SDS011;23258;49.718;11.082;2022-11-04T07:41:53;1.02;;;1.02;;
37383;SDS011;23258;49.718;11.082;2022-11-04T07:44:25;1.10;;;1.10;;
37383;SDS011;23258;49.718;11.082;2022-11-04T07:46:54;1.13;;;1.10;;
37383;SDS011;23258;49.718;11.082;2022-11-04T07:49:27;1.95;;;1.75;;
37383;SDS011;23258;49.718;11.082;2022-11-04T07:51:56;1.77;;;1.35;;
37383;SDS011;23258;49.718;11.082;2022-11-04T07:54:26;1.48;;;1.40;;
37383;SDS011;23258;49.718;11.082;2022-11-04T07:56:56;0.75;;;0.75;;
37383;SDS011;23258;49.718;11.082;2022-11-04T07:59:26;0.98;;;0.98;;
37383;SDS011;23258;49.718;11.082;2022-11-04T08:01:56;2.00;;;1.13;;
37383;SDS011;23258;49.718;11.082;2022-11-04T08:04:28;1.02;;;1.02;;
37383;SDS011;23258;49.718;11.082;2022-11-04T08:06:58;1.35;;;1.00;;
37383;SDS011;23258;49.718;11.082;2022-11-04T08:09:28;0.85;;;0.85;;
37383;SDS011;23258;49.718;11.082;2022-11-04T08:11:57;1.08;;;1.08;;
37383;SDS011;23258;49.718;11.082;2022-11-04T08:14:27;1.13;;;1.13;;
37383;SDS011;23258;49.718;11.082;2022-11-04T08:16:56;1.23;;;1.23;;
37383;SDS011;23258;49.718;11.082;2022-11-04T08:19:29;1.50;;;1.27;;
37383;SDS011;23258;49.718;11.082;2022-11-04T08:21:58;1.00;;;1.00;;
37383;SDS011;23258;49.718;11.082;2022-11-04T08:24:28;0.90;;;0.90;;
37383;SDS011;23258;49.718;11.082;2022-11-04T08:26:57;1.48;;;1.13;;
37383;SDS011;23258;49.718;11.082;2022-11-04T08:29:27;1.10;;;1.10;;
37383;SDS011;23258;49.718;11.082;2022-11-04T08:31:56;1.27;;;1.17;;
37383;SDS011;23258;49.718;11.082;2022-11-04T08:34:29;1.10;;;1.10;;
37383;SDS011;23258;49.718;11.082;2022-11-04T08:36:59;1.45;;;1.35;;
37383;SDS011;23258;49.718;11.082;2022-11-04T08:39:28;0.95;;;0.95;;
37383;SDS011;23258;49.718;11.082;2022-11-04T08:41:58;1.77;;;1.67;;
37383;SDS011;23258;49.718;11.082;2022-11-04T08:44:27;1.05;;;1.05;;
37383;SDS011;23258;49.718;11.082;2022-11-04T08:46:59;1.50;;;1.30;;
37383;SDS011;23258;49.718;11.082;2022-11-04T08:49:31;1.85;;;1.55;;
37383;SDS011;23258;49.718;11.082;2022-11-04T08:52:05;1.40;;;1.35;;
37383;SDS011;23258;49.718;11.082;2022-11-04T08:54:35;2.13;;;1.42;;
37383;SDS011;23258;49.718;11.082;2022-11-04T08:57:05;1.90;;;1.70;;
37383;SDS011;23258;49.718;11.082;2022-11-04T08:59:35;1.63;;;1.55;;
37383;SDS011;23258;49.718;11.082;2022-11-04T09:02:05;4.70;;;2.30;;
37383;SDS011;23258;49.718;11.082;2022-11-04T09:04:37;4.90;;;2.42;;
37383;SDS011;23258;49.718;11.082;2022-11-04T09:07:07;3.38;;;1.60;;
37383;SDS011;23258;49.718;11.082;2022-11-04T09:09:36;1.83;;;1.73;;
37383;SDS011;23258;49.718;11.082;2022-11-04T09:12:07;2.13;;;1.92;;
37383;SDS011;23258;49.718;11.082;2022-11-04T09:14:37;1.95;;;1.85;;
37383;SDS011;23258;49.718;11.082;2022-11-04T09:17:06;5.35;;;2.08;;
37383;SDS011;23258;49.718;11.082;2022-11-04T09:19:39;2.20;;;1.95;;
37383;SDS011;23258;49.718;11.082;2022-11-04T09:22:08;2.10;;;1.90;;
37383;SDS011;23258;49.718;11.082;2022-11-04T09:24:38;2.63;;;2.40;;
37383;SDS011;23258;49.718;11.082;2022-11-04T09:27:07;2.28;;;2.17;;
37383;SDS011;23258;49.718;11.082;2022-11-04T09:29:37;2.45;;;2.30;;
37383;SDS011;23258;49.718;11.082;2022-11-04T09:32:06;2.47;;;2.20;;
37383;SDS011;23258;49.718;11.082;2022-11-04T09:34:39;1.60;;;1.50;;
37383;SDS011;23258;49.718;11.082;2022-11-04T09:37:08;2.13;;;2.03;;
37383;SDS011;23258;49.718;11.082;2022-11-04T09:39:38;2.47;;;2.10;;
37383;SDS011;23258;49.718;11.082;2022-11-04T09:42:20;2.10;;;1.88;;
37383;SDS011;23258;49.718;11.082;2022-11-04T09:44:53;2.08;;;1.90;;
37383;SDS011;23258;49.718;11.082;2022-11-04T09:47:46;3.08;;;1.90;;
37383;SDS011;23258;49.718;11.082;2022-11-04T09:50:22;4.53;;;1.98;;
37383;SDS011;23258;49.718;11.082;2022-11-04T09:52:53;2.38;;;1.92;;
37383;SDS011;23258;49.718;11.082;2022-11-04T09:55:25;1.67;;;1.58;;
37383;SDS011;23258;49.718;11.082;2022-11-04T09:57:57;1.73;;;1.63;;
37383;SDS011;23258;49.718;11.082;2022-11-04T10:00:28;3.20;;;2.15;;
37383;SDS011;23258;49.718;11.082;2022-11-04T10:03:01;2.78;;;1.75;;
37383;SDS011;23258;49.718;11.082;2022-11-04T10:05:40;1.42;;;1.33;;
37383;SDS011;23258;49.718;11.082;2022-11-04T10:08:19;2.00;;;1.85;;
37383;SDS011;23258;49.718;11.082;2022-11-04T10:10:52;1.30;;;1.30;;
37383;SDS011;23258;49.718;11.082;2022-11-04T10:13:26;2.10;;;1.98;;
37383;SDS011;23258;49.718;11.082;2022-11-04T10:16:02;1.50;;;1.50;;
37383;SDS011;23258;49.718;11.082;2022-11-04T10:18:36;1.80;;;1.65;;
37383;SDS011;23258;49.718;11.082;2022-11-04T10:21:14;2.80;;;1.52;;
37383;SDS011;23258;49.718;11.082;2022-11-04T10:23:49;3.80;;;2.10;;
37383;SDS011;23258;49.718;11.082;2022-11-04T10:26:23;1.70;;;1.60;;
37383;SDS011;23258;49.718;11.082;2022-11-04T10:28:57;1.48;;;1.38;;
37383;SDS011;23258;49.718;11.082;2022-11-04T10:31:29;1.38;;;1.38;;
37383;SDS011;23258;49.718;11.082;2022-11-04T10:33:59;3.75;;;1.85;;
37383;SDS011;23258;49.718;11.082;2022-11-04T10:36:35;3.88;;;1.80;;
37383;SDS011;23258;49.718;11.082;2022-11-04T10:39:08;2.08;;;1.80;;
37383;SDS011;23258;49.718;11.082;2022-11-04T10:41:44;2.35;;;2.00;;
37383;SDS011;23258;49.718;11.082;2022-11-04T10:44:15;9.70;;;2.17;;
37383;SDS011;23258;49.718;11.082;2022-11-04T10:46:50;1.80;;;1.70;;
37383;SDS011;23258;49.718;11.082;2022-11-04T10:52:41;1.60;;;1.50;;
37383;SDS011;23258;49.718;11.082;2022-11-04T10:55:13;1.80;;;1.70;;
37383;SDS011;23258;49.718;11.082;2022-11-04T10:57:44;4.20;;;1.92;;
37383;SDS011;23258;49.718;11.082;2022-11-04T11:02:58;1.70;;;1.60;;
37383;SDS011;23258;49.718;11.082;2022-11-04T11:05:28;1.20;;;1.20;;
37383;SDS011;23258;49.718;11.082;2022-11-04T11:08:00;2.58;;;1.17;;
37383;SDS011;23258;49.718;11.082;2022-11-04T11:10:30;3.65;;;1.83;;
37383;SDS011;23258;49.718;11.082;2022-11-04T11:13:01;1.35;;;1.25;;
37383;SDS011;23258;49.718;11.082;2022-11-04T11:15:34;1.27;;;1.23;;
37383;SDS011;23258;49.718;11.082;2022-11-04T11:18:11;1.52;;;1.38;;
37383;SDS011;23258;49.718;11.082;2022-11-04T11:20:41;2.20;;;1.30;;
37383;SDS011;23258;49.718;11.082;2022-11-04T11:25:59;5.55;;;1.42;;
37383;SDS011;23258;49.718;11.082;2022-11-04T11:28:29;1.23;;;1.02;;
37383;SDS011;23258;49.718;11.082;2022-11-04T11:31:04;5.55;;;1.58;;
37383;SDS011;23258;49.718;11.082;2022-11-04T11:33:39;4.22;;;1.25;;
37383;SDS011;23258;49.718;11.082;2022-11-04T11:36:13;2.03;;;1.60;;
37383;SDS011;23258;49.718;11.082;2022-11-04T11:38:51;2.58;;;1.77;;
37383;SDS011;23258;49.718;11.082;2022-11-04T11:41:24;1.20;;;1.05;;
37383;SDS011;23258;49.718;11.082;2022-11-04T11:43:58;4.47;;;0.80;;
37383;SDS011;23258;49.718;11.082;2022-11-04T11:46:29;1.13;;;1.13;;
37383;SDS011;23258;49.718;11.082;2022-11-04T11:48:59;3.13;;;1.40;;
37383;SDS011;23258;49.718;11.082;2022-11-04T11:51:30;1.60;;;1.50;;
37383;SDS011;23258;49.718;11.082;2022-11-04T11:54:13;4.53;;;1.80;;
37383;SDS011;23258;49.718;11.082;2022-11-04T11:56:47;1.23;;;1.00;;
37383;SDS011;23258;49.718;11.082;2022-11-04T11:59:41;2.70;;;1.33;;
37383;SDS011;23258;49.718;11.082;2022-11-04T12:02:40;1.60;;;1.50;;
37383;SDS011;23258;49.718;11.082;2022-11-04T12:05:10;1.95;;;1.20;;
37383;SDS011;23258;49.718;11.082;2022-11-04T12:08:03;1.30;;;1.20;;
37383;SDS011;23258;49.718;11.082;2022-11-04T12:10:59;0.93;;;0.93;;
37383;SDS011;23258;49.718;11.082;2022-11-04T12:13:38;1.65;;;1.52;;
37383;SDS011;23258;49.718;11.082;2022-11-04T12:16:12;2.63;;;1.65;;
37383;SDS011;23258;49.718;11.082;2022-11-04T12:21:29;4.88;;;1.65;;
37383;SDS011;23258;49.718;11.082;2022-11-04T12:24:03;2.45;;;1.70;;
37383;SDS011;23258;49.718;11.082;2022-11-04T12:26:37;1.80;;;1.70;;
37383;SDS011;23258;49.718;11.082;2022-11-04T12:29:21;1.60;;;1.50;;
37383;SDS011;23258;49.718;11.082;2022-11-04T12:31:57;1.33;;;1.15;;
37383;SDS011;23258;49.718;11.082;2022-11-04T12:34:32;1.30;;;1.20;;
37383;SDS011;23258;49.718;11.082;2022-11-04T12:37:07;1.35;;;1.25;;
37383;SDS011;23258;49.718;11.082;2022-11-04T12:39:44;1.33;;;1.15;;
37383;SDS011;23258;49.718;11.082;2022-11-04T12:42:19;2.03;;;1.42;;
37383;SDS011;23258;49.718;11.082;2022-11-04T12:45:03;3.97;;;1.23;;
37383;SDS011;23258;49.718;11.082;2022-11-04T12:47:38;0.93;;;0.93;;
37383;SDS011;23258;49.718;11.082;2022-11-04T12:50:13;1.20;;;1.20;;
37383;SDS011;23258;49.718;11.082;2022-11-04T12:55:31;2.13;;;1.40;;
37383;SDS011;23258;49.718;11.082;2022-11-04T12:58:13;3.28;;;1.73;;
37383;SDS011;23258;49.718;11.082;2022-11-04T13:00:48;2.63;;;1.65;;
37383;SDS011;23258;49.718;11.082;2022-11-04T13:03:26;1.30;;;1.00;;
37383;SDS011;23258;49.718;11.082;2022-11-04T13:05:58;1.55;;;1.45;;
37383;SDS011;23258;49.718;11.082;2022-11-04T13:08:30;2.42;;;1.23;;
37383;SDS011;23258;49.718;11.082;2022-11-04T13:11:04;1.20;;;1.10;;
37383;SDS011;23258;49.718;11.082;2022-11-04T13:13:49;2.05;;;1.75;;
37383;SDS011;23258;49.718;11.082;2022-11-04T13:16:29;2.47;;;2.28;;
37383;SDS011;23258;49.718;11.082;2022-11-04T13:19:00;4.85;;;1.85;;
37383;SDS011;23258;49.718;11.082;2022-11-04T13:21:31;2.17;;;1.73;;
37383;SDS011;23258;49.718;11.082;2022-11-04T13:24:04;1.33;;;1.20;;
37383;SDS011;23258;49.718;11.082;2022-11-04T13:26:36;1.27;;;1.27;;
37383;SDS011;23258;49.718;11.082;2022-11-04T13:29:06;2.72;;;1.63;;
37383;SDS011;23258;49.718;11.082;2022-11-04T13:31:43;1.50;;;1.40;;
37383;SDS011;23258;49.718;11.082;2022-11-04T13:34:17;2.50;;;1.48;;
37383;SDS011;23258;49.718;11.082;2022-11-04T13:36:51;1.30;;;1.20;;
37383;SDS011;23258;49.718;11.082;2022-11-04T13:39:27;1.48;;;1.38;;
37383;SDS011;23258;49.718;11.082;2022-11-04T13:42:06;1.25;;;1.15;;
37383;SDS011;23258;49.718;11.082;2022-11-04T13:44:39;0.73;;;0.73;;
37383;SDS011;23258;49.718;11.082;2022-11-04T13:47:16;2.47;;;1.02;;
37383;SDS011;23258;49.718;11.082;2022-11-04T13:49:48;1.10;;;1.10;;
37383;SDS011;23258;49.718;11.082;2022-11-04T13:52:19;1.65;;;1.55;;
37383;SDS011;23258;49.718;11.082;2022-11-04T13:54:52;3.15;;;1.83;;
37383;SDS011;23258;49.718;11.082;2022-11-04T13:57:23;3.45;;;1.67;;
37383;SDS011;23258;49.718;11.082;2022-11-04T14:00:16;0.85;;;0.85;;
37383;SDS011;23258;49.718;11.082;2022-11-04T14:02:50;1.67;;;1.38;;
37383;SDS011;23258;49.718;11.082;2022-11-04T14:08:10;3.38;;;2.85;;
37383;SDS011;23258;49.718;11.082;2022-11-04T14:10:43;3.78;;;3.10;;
37383;SDS011;23258;49.718;11.082;2022-11-04T14:16:01;2.55;;;1.58;;
37383;SDS011;23258;49.718;11.082;2022-11-04T14:18:33;1.45;;;1.33;;
37383;SDS011;23258;49.718;11.082;2022-11-04T14:21:05;2.95;;;1.83;;
37383;SDS011;23258;49.718;11.082;2022-11-04T14:23:35;5.88;;;2.47;;
37383;SDS011;23258;49.718;11.082;2022-11-04T14:26:05;2.08;;;1.85;;
37383;SDS011;23258;49.718;11.082;2022-11-04T14:28:35;1.02;;;1.02;;
37383;SDS011;23258;49.718;11.082;2022-11-04T14:31:06;2.47;;;1.35;;
37383;SDS011;23258;49.718;11.082;2022-11-04T14:33:52;3.80;;;2.40;;
37383;SDS011;23258;49.718;11.082;2022-11-04T14:36:26;2.70;;;2.45;;
37383;SDS011;23258;49.718;11.082;2022-11-04T14:38:59;1.60;;;1.45;;
37383;SDS011;23258;49.718;11.082;2022-11-04T14:41:31;1.35;;;1.25;;
37383;SDS011;23258;49.718;11.082;2022-11-04T14:44:18;1.20;;;1.20;;
37383;SDS011;23258;49.718;11.082;2022-11-04T14:46:49;2.42;;;1.40;;
37383;SDS011;23258;49.718;11.082;2022-11-04T14:49:31;2.40;;;1.40;;
37383;SDS011;23258;49.718;11.082;2022-11-04T14:52:04;3.17;;;1.63;;
37383;SDS011;23258;49.718;11.082;2022-11-04T14:54:33;2.80;;;1.52;;
37383;SDS011;23258;49.718;11.082;2022-11-04T14:57:14;2.70;;;1.25;;
37383;SDS011;23258;49.718;11.082;2022-11-04T14:59:44;1.33;;;1.15;;
37383;SDS011;23258;49.718;11.082;2022-11-04T15:02:15;1.70;;;1.58;;
37383;SDS011;23258;49.718;11.082;2022-11-04T15:04:52;3.20;;;1.58;;
37383;SDS011;23258;49.718;11.082;2022-11-04T15:07:25;2.65;;;1.70;;
37383;SDS011;23258;49.718;11.082;2022-11-04T15:09:54;1.30;;;1.20;;
37383;SDS011;23258;49.718;11.082;2022-11-04T15:12:24;1.05;;;1.05;;
37383;SDS011;23258;49.718;11.082;2022-11-04T15:17:51;1.40;;;1.23;;
37383;SDS011;23258;49.718;11.082;2022-11-04T15:20:23;1.20;;;1.20;;
37383;SDS011;23258;49.718;11.082;2022-11-04T15:22:56;1.42;;;1.30;;
37383;SDS011;23258;49.718;11.082;2022-11-04T15:25:26;1.40;;;1.30;;
37383;SDS011;23258;49.718;11.082;2022-11-04T15:27:55;1.40;;;1.30;;
37383;SDS011;23258;49.718;11.082;2022-11-04T15:30:26;2.17;;;1.80;;